createdAt,value
2016-05-30T00:00:18.981Z,87.73
2016-05-30T00:01:18.797Z,88.21
2016-05-30T00:02:18.768Z,87.92
2016-05-30T00:03:18.927Z,87.98
2016-05-30T00:04:18.899Z,87.78
2016-05-30T00:05:18.730Z,87.68
2016-05-30T00:06:19.310Z,87.82
2016-05-30T00:07:19.063Z,88.11
2016-05-30T00:08:18.831Z,87.73
2016-05-30T00:09:18.802Z,87.63
2016-05-30T00:10:18.790Z,87.88
2016-05-30T00:11:18.621Z,88.07
2016-05-30T00:12:18.763Z,88.07
2016-05-30T00:13:18.751Z,87.88
2016-05-30T00:14:18.723Z,87.68
2016-05-30T00:15:18.553Z,87.92
2016-05-30T00:16:18.696Z,87.98
2016-05-30T00:17:18.527Z,88.26
2016-05-30T00:18:18.654Z,88.11
2016-05-30T00:19:18.642Z,88.02
2016-05-30T00:20:18.629Z,87.82
2016-05-30T00:21:18.616Z,88.07
2016-05-30T00:22:18.603Z,88.26
2016-05-30T00:23:18.575Z,88.26
2016-05-30T00:24:18.561Z,88.49
2016-05-30T00:25:18.377Z,88.35
2016-05-30T00:26:18.519Z,88.35
2016-05-30T00:27:18.507Z,89.03
2016-05-30T00:28:18.495Z,89.03
2016-05-30T00:29:18.466Z,88.93
2016-05-30T00:30:18.469Z,89.03
2016-05-30T00:31:18.439Z,88.84
2016-05-30T00:32:18.427Z,88.93
2016-05-30T00:33:18.398Z,88.35
2016-05-30T00:34:18.385Z,88.65
2016-05-30T00:35:18.372Z,89.03
2016-05-30T00:36:18.375Z,89.32
2016-05-30T00:37:18.347Z,89.12
2016-05-30T00:38:18.318Z,88.84
2016-05-30T00:39:18.304Z,89.32
2016-05-30T00:40:18.293Z,89.03
2016-05-30T00:41:18.280Z,89.03
2016-05-30T00:42:18.251Z,89.75
2016-05-30T00:43:18.238Z,89.94
2016-05-30T00:44:18.068Z,89.94
2016-05-30T00:45:18.196Z,88.98
2016-05-30T00:46:18.184Z,88.45
2016-05-30T00:47:18.171Z,88.65
2016-05-30T00:48:17.985Z,88.93
2016-05-30T00:49:18.129Z,89.32
2016-05-30T00:50:18.116Z,89.03
2016-05-30T00:51:18.525Z,88.74
2016-05-30T00:52:17.934Z,88.84
2016-05-30T00:53:18.045Z,89.99
2016-05-30T00:54:18.048Z,90.14
2016-05-30T00:55:18.036Z,89.94
2016-05-30T00:56:18.007Z,90.52
2016-05-30T00:57:17.994Z,91
2016-05-30T00:58:17.981Z,91
2016-05-30T00:59:17.812Z,91
2016-05-30T01:00:17.939Z,90.23
2016-05-30T01:01:17.927Z,90.33
2016-05-30T01:02:17.913Z,91.67
2016-05-30T01:03:17.900Z,91.14
2016-05-30T01:04:17.872Z,91.53
2016-05-30T01:05:17.875Z,90.81
2016-05-30T01:06:18.049Z,90.81
2016-05-30T01:07:17.818Z,90.81
2016-05-30T01:08:17.805Z,90.81
2016-05-30T01:09:17.776Z,90.04
2016-05-30T01:10:17.779Z,90.14
2016-05-30T01:11:17.750Z,89.94
2016-05-30T01:12:17.737Z,90.52
2016-05-30T01:13:17.724Z,90.52
2016-05-30T01:14:17.555Z,89.56
2016-05-30T01:15:17.682Z,89.32
2016-05-30T01:16:17.686Z,89.12
2016-05-30T01:17:17.657Z,89.03
2016-05-30T01:18:17.629Z,89.79
2016-05-30T01:19:17.615Z,90.61
2016-05-30T01:20:17.603Z,90.04
2016-05-30T01:21:17.746Z,89.99
2016-05-30T01:22:17.577Z,89.89
2016-05-30T01:23:17.548Z,89.89
2016-05-30T01:24:17.536Z,90.71
2016-05-30T01:25:17.523Z,89.75
2016-05-30T01:26:17.495Z,89.61
2016-05-30T01:27:17.481Z,90.08
2016-05-30T01:28:17.468Z,89.94
2016-05-30T01:29:17.439Z,90.14
2016-05-30T01:30:17.427Z,90.33
2016-05-30T01:31:17.414Z,90.71
2016-05-30T01:32:17.385Z,90.71
2016-05-30T01:33:17.372Z,90.23
2016-05-30T01:34:17.358Z,90.81
2016-05-30T01:35:17.347Z,91.19
2016-05-30T01:36:17.333Z,90.81
2016-05-30T01:37:17.180Z,91.09
2016-05-30T01:38:17.291Z,90.9
2016-05-30T01:39:17.279Z,91
2016-05-30T01:40:17.266Z,90.81
2016-05-30T01:41:17.238Z,91.19
2016-05-30T01:42:17.224Z,91.57
2016-05-30T01:43:17.212Z,91.63
2016-05-30T01:44:17.027Z,92.01
2016-05-30T01:45:17.170Z,92.01
2016-05-30T01:46:17.141Z,91.24
2016-05-30T01:47:16.987Z,91.38
2016-05-30T01:48:17.115Z,91.05
2016-05-30T01:49:17.118Z,90.9
2016-05-30T01:50:17.090Z,90.81
2016-05-30T01:51:17.076Z,91.09
2016-05-30T01:52:17.048Z,91
2016-05-30T01:53:16.879Z,91.09
2016-05-30T01:54:17.022Z,91
2016-05-30T01:55:17.009Z,91.19
2016-05-30T01:56:16.980Z,90.14
2016-05-30T01:57:16.983Z,90.14
2016-05-30T01:58:16.939Z,90.81
2016-05-30T01:59:16.926Z,90.81
2016-05-30T02:00:16.913Z,90.33
2016-05-30T02:01:16.917Z,90.81
2016-05-30T02:02:16.872Z,90.61
2016-05-30T02:03:16.874Z,89.65
2016-05-30T02:04:16.846Z,90.33
2016-05-30T02:05:16.833Z,90.23
2016-05-30T02:06:16.805Z,90.81
2016-05-30T02:07:16.792Z,90.71
2016-05-30T02:08:16.780Z,91
2016-05-30T02:09:16.749Z,90.71
2016-05-30T02:10:16.738Z,89.75
2016-05-30T02:11:16.568Z,89.12
2016-05-30T02:12:16.696Z,90.04
2016-05-30T02:13:16.683Z,90.42
2016-05-30T02:14:16.670Z,90.42
2016-05-30T02:15:16.657Z,90.81
2016-05-30T02:16:16.644Z,90.76
2016-05-30T02:17:16.616Z,90.33
2016-05-30T02:18:16.602Z,90.33
2016-05-30T02:19:16.590Z,89.94
2016-05-30T02:20:16.577Z,90.52
2016-05-30T02:21:16.954Z,90.14
2016-05-30T02:22:17.223Z,89.94
2016-05-30T02:23:16.522Z,89.94
2016-05-30T02:24:16.509Z,90.23
2016-05-30T02:25:16.340Z,90.33
2016-05-30T02:26:16.312Z,90.23
2016-05-30T02:27:16.298Z,90.23
2016-05-30T02:28:16.442Z,89.65
2016-05-30T02:29:16.429Z,89.94
2016-05-30T02:30:16.400Z,89.65
2016-05-30T02:31:16.387Z,89.85
2016-05-30T02:32:16.202Z,89.65
2016-05-30T02:33:16.347Z,89.94
2016-05-30T02:34:16.317Z,90.42
2016-05-30T02:35:16.148Z,89.56
2016-05-30T02:36:16.619Z,89.75
2016-05-30T02:37:16.278Z,89.37
2016-05-30T02:38:16.266Z,89.37
2016-05-30T02:39:16.250Z,89.47
2016-05-30T02:40:16.264Z,88.79
2016-05-30T02:41:16.277Z,89.18
2016-05-30T02:42:16.292Z,88.98
2016-05-30T02:43:16.306Z,88.41
2016-05-30T02:44:16.296Z,88.7
2016-05-30T02:45:16.278Z,88.41
2016-05-30T02:46:16.274Z,89.27
2016-05-30T02:47:16.270Z,89.27
2016-05-30T02:48:16.251Z,88.98
2016-05-30T02:49:16.261Z,88.89
2016-05-30T02:50:16.250Z,88.7
2016-05-30T02:51:16.226Z,89.27
2016-05-30T02:52:16.217Z,88.98
2016-05-30T02:53:16.207Z,89.08
2016-05-30T02:54:16.181Z,89.56
2016-05-30T02:55:16.169Z,89.94
2016-05-30T02:56:16.001Z,90.19
2016-05-30T02:57:16.146Z,90.38
2016-05-30T02:58:15.962Z,89.85
2016-05-30T02:59:16.106Z,89.94
2016-05-30T03:00:16.079Z,90.19
2016-05-30T03:01:16.067Z,89.61
2016-05-30T03:02:16.053Z,90.67
2016-05-30T03:03:16.042Z,90.09
2016-05-30T03:04:16.029Z,90.09
2016-05-30T03:05:16.001Z,89.65
2016-05-30T03:06:15.973Z,89.47
2016-05-30T03:07:16.147Z,89.94
2016-05-30T03:08:15.945Z,89.18
2016-05-30T03:09:15.934Z,89.27
2016-05-30T03:10:15.921Z,88.98
2016-05-30T03:11:15.892Z,88.98
2016-05-30T03:12:15.879Z,89.08
2016-05-30T03:13:15.866Z,88.51
2016-05-30T03:14:15.837Z,89.18
2016-05-30T03:15:15.825Z,89.27
2016-05-30T03:16:15.812Z,89.18
2016-05-30T03:17:15.799Z,88.98
2016-05-30T03:18:15.802Z,89.27
2016-05-30T03:19:15.757Z,88.79
2016-05-30T03:20:15.728Z,88.51
2016-05-30T03:21:15.716Z,89.08
2016-05-30T03:22:15.702Z,88.6
2016-05-30T03:23:15.690Z,89.27
2016-05-30T03:24:15.521Z,88.79
2016-05-30T03:25:15.664Z,88.98
2016-05-30T03:26:15.635Z,89.18
2016-05-30T03:27:15.621Z,89.94
2016-05-30T03:28:15.610Z,89.9
2016-05-30T03:29:15.440Z,89.94
2016-05-30T03:30:15.599Z,89.08
2016-05-30T03:31:15.554Z,89.18
2016-05-30T03:32:15.526Z,89.27
2016-05-30T03:33:15.513Z,89.08
2016-05-30T03:34:15.484Z,89.47
2016-05-30T03:35:15.487Z,89.65
2016-05-30T03:36:15.459Z,89.94
2016-05-30T03:37:15.446Z,89.65
2016-05-30T03:38:15.434Z,90.04
2016-05-30T03:39:15.405Z,89.56
2016-05-30T03:40:15.391Z,89.18
2016-05-30T03:41:15.364Z,89.18
2016-05-30T03:42:15.367Z,88.98
2016-05-30T03:43:15.337Z,89.85
2016-05-30T03:44:15.325Z,89.8
2016-05-30T03:45:15.312Z,89.71
2016-05-30T03:46:15.298Z,89.23
2016-05-30T03:47:15.114Z,89.27
2016-05-30T03:48:15.257Z,89.9
2016-05-30T03:49:15.244Z,89.9
2016-05-30T03:50:15.231Z,89.04
2016-05-30T03:51:15.203Z,89.56
2016-05-30T03:52:15.861Z,89.18
2016-05-30T03:53:15.161Z,88.89
2016-05-30T03:54:15.148Z,88.79
2016-05-30T03:55:14.994Z,89.04
2016-05-30T03:56:15.138Z,89.08
2016-05-30T03:57:15.110Z,88.46
2016-05-30T03:58:15.080Z,88.41
2016-05-30T03:59:15.068Z,88.51
2016-05-30T04:00:15.055Z,89.08
2016-05-30T04:01:15.042Z,89.27
2016-05-30T04:02:15.013Z,88.94
2016-05-30T04:03:15.000Z,88.89
2016-05-30T04:04:14.988Z,89.13
2016-05-30T04:05:14.959Z,89.13
2016-05-30T04:06:14.946Z,89.23
2016-05-30T04:07:15.151Z,88.6
2016-05-30T04:08:14.904Z,89.13
2016-05-30T04:09:14.892Z,88.84
2016-05-30T04:10:14.879Z,88.84
2016-05-30T04:11:14.851Z,89.04
2016-05-30T04:12:14.837Z,88.75
2016-05-30T04:13:14.824Z,89.04
2016-05-30T04:14:14.812Z,88.94
2016-05-30T04:15:14.783Z,88.94
2016-05-30T04:16:14.786Z,89.04
2016-05-30T04:17:14.757Z,89.04
2016-05-30T04:18:14.744Z,88.46
2016-05-30T04:19:14.731Z,88.65
2016-05-30T04:20:14.703Z,88.08
2016-05-30T04:21:14.689Z,88.17
2016-05-30T04:22:15.302Z,87.88
2016-05-30T04:23:14.633Z,88.12
2016-05-30T04:24:14.635Z,87.93
2016-05-30T04:25:14.622Z,87.98
2016-05-30T04:26:14.609Z,88.22
2016-05-30T04:27:14.580Z,88.75
2016-05-30T04:28:14.568Z,88.84
2016-05-30T04:29:14.398Z,87.79
2016-05-30T04:30:14.526Z,87.31
2016-05-30T04:31:14.513Z,87.98
2016-05-30T04:32:14.501Z,87.84
2016-05-30T04:33:14.471Z,87.79
2016-05-30T04:34:14.474Z,87.98
2016-05-30T04:35:14.445Z,87.79
2016-05-30T04:36:14.432Z,87.6
2016-05-30T04:37:14.608Z,87.35
2016-05-30T04:38:14.392Z,87.35
2016-05-30T04:39:14.378Z,87.93
2016-05-30T04:40:14.350Z,87.98
2016-05-30T04:41:14.337Z,87.7
2016-05-30T04:42:14.323Z,87.84
2016-05-30T04:43:14.296Z,87.26
2016-05-30T04:44:14.283Z,87.45
2016-05-30T04:45:14.269Z,87.64
2016-05-30T04:46:14.085Z,87.16
2016-05-30T04:47:14.228Z,86.97
2016-05-30T04:48:14.200Z,87.35
2016-05-30T04:49:14.203Z,87.35
2016-05-30T04:50:14.189Z,87.45
2016-05-30T04:51:14.161Z,87.84
2016-05-30T04:52:14.148Z,87.64
2016-05-30T04:53:14.119Z,87.6
2016-05-30T04:54:14.122Z,87.31
2016-05-30T04:55:14.094Z,87.41
2016-05-30T04:56:14.080Z,87.64
2016-05-30T04:57:14.052Z,87.7
2016-05-30T04:58:13.883Z,87.98
2016-05-30T04:59:14.010Z,88.08
2016-05-30T05:00:14.013Z,87.41
2016-05-30T05:01:13.985Z,87.21
2016-05-30T05:02:13.971Z,87.74
2016-05-30T05:03:13.959Z,87.93
2016-05-30T05:04:13.946Z,87.98
2016-05-30T05:05:13.917Z,87.88
2016-05-30T05:06:13.904Z,87.88
2016-05-30T05:07:13.891Z,88.17
2016-05-30T05:08:13.862Z,88.27
2016-05-30T05:09:13.850Z,88.17
2016-05-30T05:10:13.681Z,87.7
2016-05-30T05:11:13.823Z,87.98
2016-05-30T05:12:13.795Z,87.93
2016-05-30T05:13:13.782Z,87.98
2016-05-30T05:14:13.769Z,88.17
2016-05-30T05:15:13.756Z,88.84
2016-05-30T05:16:13.572Z,88.46
2016-05-30T05:17:13.715Z,88.17
2016-05-30T05:18:13.702Z,87.79
2016-05-30T05:19:13.673Z,87.98
2016-05-30T05:20:13.661Z,87.98
2016-05-30T05:21:13.492Z,87.26
2016-05-30T05:22:14.214Z,87.7
2016-05-30T05:23:13.606Z,87.98
2016-05-30T05:24:13.609Z,87.98
2016-05-30T05:25:13.596Z,87.98
2016-05-30T05:26:13.567Z,87.98
2016-05-30T05:27:13.539Z,87.7
2016-05-30T05:28:13.527Z,87.84
2016-05-30T05:29:13.513Z,88.08
2016-05-30T05:30:13.499Z,87.7
2016-05-30T05:31:13.456Z,87.6
2016-05-30T05:32:13.458Z,87.98
2016-05-30T05:33:13.430Z,88.08
2016-05-30T05:34:13.417Z,88.08
2016-05-30T05:35:13.404Z,87.5
2016-05-30T05:36:13.391Z,87.98
2016-05-30T05:37:13.425Z,88.08
2016-05-30T05:38:13.334Z,88.27
2016-05-30T05:39:13.352Z,88.27
2016-05-30T05:40:13.323Z,88.17
2016-05-30T05:41:13.296Z,87.79
2016-05-30T05:42:13.267Z,87.98
2016-05-30T05:43:13.254Z,87.5
2016-05-30T05:44:13.240Z,87.21
2016-05-30T05:45:13.228Z,87.6
2016-05-30T05:46:13.042Z,87.6
2016-05-30T05:47:13.203Z,87.5
2016-05-30T05:48:13.017Z,87.5
2016-05-30T05:49:13.161Z,87.6
2016-05-30T05:50:13.132Z,87.79
2016-05-30T05:51:13.119Z,87.41
2016-05-30T05:52:13.090Z,87.7
2016-05-30T05:53:13.093Z,87.6
2016-05-30T05:54:13.081Z,87.31
2016-05-30T05:55:13.052Z,86.93
2016-05-30T05:56:13.039Z,87.41
2016-05-30T05:57:13.041Z,87.6
2016-05-30T05:58:12.982Z,87.21
2016-05-30T05:59:12.985Z,86.93
2016-05-30T06:00:12.972Z,86.93
2016-05-30T06:01:12.958Z,87.6
2016-05-30T06:02:12.930Z,87.6
2016-05-30T06:03:12.917Z,87.12
2016-05-30T06:04:12.904Z,87.21
2016-05-30T06:05:12.719Z,87.5
2016-05-30T06:06:12.863Z,87.02
2016-05-30T06:07:13.177Z,87.41
2016-05-30T06:08:12.821Z,87.7
2016-05-30T06:09:12.808Z,87.21
2016-05-30T06:10:12.795Z,87.21
2016-05-30T06:11:12.767Z,87.7
2016-05-30T06:12:12.754Z,87.5
2016-05-30T06:13:12.584Z,87.21
2016-05-30T06:14:12.728Z,87.21
2016-05-30T06:15:12.699Z,87.07
2016-05-30T06:16:12.530Z,86.88
2016-05-30T06:17:12.517Z,86.21
2016-05-30T06:18:12.661Z,86.3
2016-05-30T06:19:12.647Z,86.78
2016-05-30T06:20:12.462Z,86.58
2016-05-30T06:21:12.606Z,86.21
2016-05-30T06:22:12.577Z,86.49
2016-05-30T06:23:12.580Z,86.11
2016-05-30T06:24:12.552Z,85.92
2016-05-30T06:25:12.522Z,85.63
2016-05-30T06:26:12.510Z,85.82
2016-05-30T06:27:12.497Z,86.01
2016-05-30T06:28:13.062Z,85.25
2016-05-30T06:29:12.455Z,85.15
2016-05-30T06:30:12.443Z,85.25
2016-05-30T06:31:12.429Z,85.05
2016-05-30T06:32:12.416Z,85.15
2016-05-30T06:33:13.872Z,85.25
2016-05-30T06:34:12.375Z,85.92
2016-05-30T06:35:12.363Z,85.72
2016-05-30T06:36:12.349Z,85.82
2016-05-30T06:37:12.508Z,85.05
2016-05-30T06:38:12.307Z,85.63
2016-05-30T06:39:12.295Z,85.25
2016-05-30T06:40:13.376Z,84.38
2016-05-30T06:41:12.253Z,84
2016-05-30T06:42:12.241Z,84.09
2016-05-30T06:43:12.228Z,83.91
2016-05-30T06:44:12.199Z,82.6
2016-05-30T06:45:12.186Z,82.79
2016-05-30T06:46:12.173Z,83.65
2016-05-30T06:47:12.145Z,83.91
2016-05-30T06:48:11.975Z,83.47
2016-05-30T06:49:12.120Z,82.31
2016-05-30T06:50:12.090Z,82.6
2016-05-30T06:51:12.108Z,82.31
2016-05-30T06:52:12.581Z,82.12
2016-05-30T06:53:12.051Z,81.93
2016-05-30T06:54:11.897Z,82.51
2016-05-30T06:55:12.042Z,82.6
2016-05-30T06:56:12.013Z,82.51
2016-05-30T06:57:11.984Z,82.7
2016-05-30T06:58:11.972Z,83.08
2016-05-30T06:59:11.958Z,82.79
2016-05-30T07:00:11.961Z,82.98
2016-05-30T07:01:11.916Z,82.89
2016-05-30T07:02:11.904Z,83.27
2016-05-30T07:03:11.875Z,83.08
2016-05-30T07:04:11.863Z,82.79
2016-05-30T07:05:11.694Z,82.03
2016-05-30T07:06:11.821Z,82.07
2016-05-30T07:07:12.386Z,82.54
2016-05-30T07:08:11.795Z,82.31
2016-05-30T07:09:11.782Z,82.6
2016-05-30T07:10:11.768Z,82.7
2016-05-30T07:11:11.741Z,82.03
2016-05-30T07:12:11.727Z,83.08
2016-05-30T07:13:12.214Z,83.08
2016-05-30T07:14:11.530Z,82.98
2016-05-30T07:15:11.673Z,83.56
2016-05-30T07:16:11.660Z,82.79
2016-05-30T07:17:11.648Z,82.51
2016-05-30T07:18:11.635Z,82.35
2016-05-30T07:19:11.606Z,82.16
2016-05-30T07:20:11.593Z,81.78
2016-05-30T07:21:11.580Z,81.97
2016-05-30T07:22:12.051Z,81.97
2016-05-30T07:23:11.554Z,81.87
2016-05-30T07:24:11.525Z,82.26
2016-05-30T07:25:11.512Z,82.16
2016-05-30T07:26:11.484Z,82.64
2016-05-30T07:27:11.472Z,81.87
2016-05-30T07:28:11.520Z,82.26
2016-05-30T07:29:11.430Z,81.87
2016-05-30T07:30:11.433Z,81.4
2016-05-30T07:31:11.419Z,81.78
2016-05-30T07:32:11.406Z,82.16
2016-05-30T07:33:11.987Z,81.97
2016-05-30T07:34:11.365Z,82.35
2016-05-30T07:35:11.352Z,81.97
2016-05-30T07:36:11.324Z,81.49
2016-05-30T07:37:11.154Z,81.59
2016-05-30T07:38:11.329Z,81.59
2016-05-30T07:39:11.268Z,81.1
2016-05-30T07:40:13.444Z,81.4
2016-05-30T07:41:11.243Z,81.2
2016-05-30T07:42:11.230Z,80.91
2016-05-30T07:43:11.217Z,80.73
2016-05-30T07:44:11.189Z,80.76
2016-05-30T07:45:11.207Z,80.47
2016-05-30T07:46:11.147Z,80.66
2016-05-30T07:47:11.134Z,80.38
2016-05-30T07:48:12.028Z,79.22
2016-05-30T07:49:11.109Z,79.13
2016-05-30T07:50:12.611Z,79.22
2016-05-30T07:51:11.082Z,79.8
2016-05-30T07:52:10.913Z,79.13
2016-05-30T07:53:11.056Z,79.13
2016-05-30T07:54:11.044Z,79.52
2016-05-30T07:55:10.875Z,79.13
2016-05-30T07:56:11.003Z,78.88
2016-05-30T07:57:10.989Z,78.78
2016-05-30T07:58:10.976Z,77.73
2016-05-30T07:59:10.947Z,77.34
2016-05-30T08:00:10.919Z,78.21
2016-05-30T08:01:10.922Z,77.92
2016-05-30T08:02:10.894Z,77.53
2016-05-30T08:03:11.239Z,78.11
2016-05-30T08:04:10.867Z,78.59
2016-05-30T08:05:10.699Z,78.88
2016-05-30T08:06:10.826Z,79.27
2016-05-30T08:07:10.704Z,78.69
2016-05-30T08:08:10.832Z,77.73
2016-05-30T08:09:10.788Z,78.11
2016-05-30T08:10:10.774Z,77.92
2016-05-30T08:11:10.746Z,78.88
2016-05-30T08:12:10.732Z,78.4
2016-05-30T08:13:10.735Z,77.92
2016-05-30T08:14:10.707Z,77.58
2016-05-30T08:15:10.694Z,76.23
2016-05-30T08:16:10.682Z,76.61
2016-05-30T08:17:10.668Z,76.14
2016-05-30T08:18:10.655Z,76.32
2016-05-30T08:19:10.626Z,75.98
2016-05-30T08:20:10.614Z,75.59
2016-05-30T08:21:10.601Z,75.49
2016-05-30T08:22:10.979Z,76.17
2016-05-30T08:23:10.419Z,75.4
2016-05-30T08:24:10.545Z,75.4
2016-05-30T08:25:10.392Z,75.11
2016-05-30T08:26:10.520Z,75.31
2016-05-30T08:27:10.508Z,74.82
2016-05-30T08:28:10.495Z,75.11
2016-05-30T08:29:10.466Z,75.49
2016-05-30T08:30:10.453Z,75.4
2016-05-30T08:31:10.455Z,74.73
2016-05-30T08:32:10.442Z,74.92
2016-05-30T08:33:10.258Z,73.13
2016-05-30T08:34:10.402Z,73.47
2016-05-30T08:35:10.232Z,73.96
2016-05-30T08:36:10.375Z,72.9
2016-05-30T08:37:10.206Z,72.45
2016-05-30T08:38:10.333Z,72.36
2016-05-30T08:39:10.336Z,73.13
2016-05-30T08:40:10.308Z,72.07
2016-05-30T08:41:10.296Z,71.97
2016-05-30T08:42:10.283Z,72.45
2016-05-30T08:43:10.284Z,72.84
2016-05-30T08:44:10.241Z,73.13
2016-05-30T08:45:10.227Z,71.97
2016-05-30T08:46:10.215Z,72.26
2016-05-30T08:47:10.201Z,71.97
2016-05-30T08:48:10.204Z,71.04
2016-05-30T08:49:10.192Z,70.18
2016-05-30T08:50:10.148Z,70.86
2016-05-30T08:51:10.151Z,70.28
2016-05-30T08:52:10.121Z,68.84
2016-05-30T08:53:10.108Z,68.93
2016-05-30T08:54:10.095Z,69.47
2016-05-30T08:55:10.083Z,69.28
2016-05-30T08:56:10.070Z,68.99
2016-05-30T08:57:10.042Z,69.18
2016-05-30T08:58:10.045Z,69.18
2016-05-30T08:59:09.875Z,69.18
2016-05-30T09:00:10.017Z,68.9
2016-05-30T09:01:09.989Z,68.99
2016-05-30T09:02:09.977Z,68.32
2016-05-30T09:03:10.370Z,68.44
2016-05-30T09:04:09.936Z,68.03
2016-05-30T09:05:09.938Z,67.83
2016-05-30T09:06:09.753Z,68.32
2016-05-30T09:07:09.911Z,67.45
2016-05-30T09:08:09.884Z,67.35
2016-05-30T09:09:09.871Z,66.81
2016-05-30T09:10:09.857Z,66.04
2016-05-30T09:11:09.688Z,64.21
2016-05-30T09:12:09.816Z,63.06
2016-05-30T09:13:09.819Z,64.21
2016-05-30T09:14:09.805Z,64.02
2016-05-30T09:15:09.777Z,64.12
2016-05-30T09:16:09.764Z,64.89
2016-05-30T09:17:09.751Z,64.31
2016-05-30T09:18:09.738Z,63.73
2016-05-30T09:19:09.726Z,64.21
2016-05-30T09:20:09.713Z,63.67
2016-05-30T09:21:09.731Z,63.44
2016-05-30T09:22:10.109Z,63.54
2016-05-30T09:23:09.658Z,63.82
2016-05-30T09:24:09.645Z,64.12
2016-05-30T09:25:09.664Z,64.4
2016-05-30T09:26:09.620Z,64.69
2016-05-30T09:27:09.653Z,65.17
2016-05-30T09:28:09.577Z,65.46
2016-05-30T09:29:09.565Z,65.75
2016-05-30T09:30:09.552Z,65.75
2016-05-30T09:31:09.539Z,64.5
2016-05-30T09:32:09.526Z,64.79
2016-05-30T09:33:09.498Z,64.4
2016-05-30T09:34:09.500Z,64.21
2016-05-30T09:35:09.487Z,64.43
2016-05-30T09:36:09.302Z,64.05
2016-05-30T09:37:09.993Z,63.73
2016-05-30T09:38:09.433Z,64.15
2016-05-30T09:39:09.419Z,64.25
2016-05-30T09:40:09.407Z,63.85
2016-05-30T09:41:09.394Z,63.95
2016-05-30T09:42:09.365Z,63.67
2016-05-30T09:43:09.353Z,64.34
2016-05-30T09:44:09.355Z,64.12
2016-05-30T09:45:09.326Z,64.79
2016-05-30T09:46:09.158Z,63.92
2016-05-30T09:47:09.301Z,63.38
2016-05-30T09:48:09.318Z,63.38
2016-05-30T09:49:09.260Z,63.18
2016-05-30T09:50:09.246Z,62.6
2016-05-30T09:51:09.077Z,63.18
2016-05-30T09:52:09.064Z,63.95
2016-05-30T09:53:09.223Z,63.67
2016-05-30T09:54:09.022Z,62.9
2016-05-30T09:55:09.181Z,62.83
2016-05-30T09:56:09.153Z,62.63
2016-05-30T09:57:09.187Z,63.18
2016-05-30T09:58:08.970Z,64.15
2016-05-30T09:59:09.114Z,62.83
2016-05-30T10:00:09.101Z,61.77
2016-05-30T10:01:09.089Z,62.35
2016-05-30T10:02:09.075Z,61.77
2016-05-30T10:03:09.062Z,61.96
2016-05-30T10:04:09.050Z,61.87
2016-05-30T10:05:09.022Z,61.38
2016-05-30T10:06:09.024Z,61.19
2016-05-30T10:07:09.152Z,60.52
2016-05-30T10:08:08.983Z,60.06
2016-05-30T10:09:08.970Z,60.71
2016-05-30T10:10:08.956Z,61.19
2016-05-30T10:11:08.928Z,60.8
2016-05-30T10:12:08.916Z,61.48
2016-05-30T10:13:08.918Z,60.9
2016-05-30T10:14:08.889Z,60.23
2016-05-30T10:15:08.877Z,59.97
2016-05-30T10:16:08.879Z,58.62
2016-05-30T10:17:08.866Z,57.94
2016-05-30T10:18:08.837Z,56.91
2016-05-30T10:19:08.668Z,57.49
2016-05-30T10:20:08.812Z,58.78
2016-05-30T10:21:08.798Z,58.23
2016-05-30T10:22:08.785Z,57.07
2016-05-30T10:23:08.773Z,56.21
2016-05-30T10:24:08.760Z,57.07
2016-05-30T10:25:08.762Z,55.56
2016-05-30T10:26:08.578Z,55.18
2016-05-30T10:27:08.737Z,56.01
2016-05-30T10:28:08.708Z,55.63
2016-05-30T10:29:08.695Z,54.69
2016-05-30T10:30:08.682Z,55.18
2016-05-30T10:31:08.653Z,55.85
2016-05-30T10:32:08.656Z,55.46
2016-05-30T10:33:08.487Z,55.85
2016-05-30T10:34:08.474Z,58.19
2016-05-30T10:35:08.617Z,59.06
2016-05-30T10:36:08.589Z,59.58
2016-05-30T10:37:08.592Z,60.35
2016-05-30T10:38:08.563Z,60.44
2016-05-30T10:39:08.550Z,60.73
2016-05-30T10:40:08.365Z,59.86
2016-05-30T10:41:08.525Z,60.06
2016-05-30T10:42:08.511Z,60.64
2016-05-30T10:43:08.514Z,61.67
2016-05-30T10:44:08.548Z,62.63
2016-05-30T10:45:08.300Z,61.96
2016-05-30T10:46:08.459Z,61.28
2016-05-30T10:47:08.463Z,62.73
2016-05-30T10:48:08.293Z,62.7
2016-05-30T10:49:08.435Z,62.79
2016-05-30T10:50:08.407Z,62.66
2016-05-30T10:51:08.396Z,62.76
2016-05-30T10:52:08.929Z,61.93
2016-05-30T10:53:08.447Z,62.31
2016-05-30T10:54:08.357Z,62.89
2016-05-30T10:55:08.327Z,62.31
2016-05-30T10:56:08.315Z,61.93
2016-05-30T10:57:08.396Z,60.41
2016-05-30T10:58:08.132Z,59.16
2016-05-30T10:59:08.292Z,59.28
2016-05-30T11:00:08.278Z,58.7
2016-05-30T11:01:08.093Z,59.02
2016-05-30T11:02:08.253Z,59.96
2016-05-30T11:03:08.239Z,59.67
2016-05-30T11:04:08.242Z,58.58
2016-05-30T11:05:08.229Z,58.7
2016-05-30T11:06:08.200Z,58
2016-05-30T11:07:08.172Z,58.32
2016-05-30T11:08:08.159Z,58.32
2016-05-30T11:09:08.146Z,58.32
2016-05-30T11:10:08.117Z,58.39
2016-05-30T11:11:08.120Z,58.19
2016-05-30T11:12:08.108Z,57.45
2016-05-30T11:13:08.079Z,56.74
2016-05-30T11:14:08.066Z,55.9
2016-05-30T11:15:08.069Z,56.8
2016-05-30T11:16:08.055Z,57.93
2016-05-30T11:17:08.027Z,56.77
2016-05-30T11:18:08.014Z,55.42
2016-05-30T11:19:07.861Z,55.33
2016-05-30T11:20:08.004Z,55.16
2016-05-30T11:21:07.991Z,54.77
2016-05-30T11:22:08.041Z,52.58
2016-05-30T11:23:07.950Z,51.83
2016-05-30T11:24:07.952Z,53.09
2016-05-30T11:25:07.924Z,52.61
2016-05-30T11:26:07.926Z,53.59
2016-05-30T11:27:07.898Z,52.53
2016-05-30T11:28:07.884Z,51.76
2016-05-30T11:29:07.873Z,50.24
2016-05-30T11:30:07.875Z,50.14
2016-05-30T11:31:07.846Z,51.3
2016-05-30T11:32:07.848Z,50.72
2016-05-30T11:33:07.836Z,50.43
2016-05-30T11:34:07.839Z,50.45
2016-05-30T11:35:07.826Z,51.68
2016-05-30T11:36:07.812Z,50.12
2016-05-30T11:37:07.800Z,51.18
2016-05-30T11:38:07.646Z,51.01
2016-05-30T11:39:07.790Z,51.76
2016-05-30T11:40:07.777Z,51.93
2016-05-30T11:41:07.763Z,51.13
2016-05-30T11:42:07.766Z,51.08
2016-05-30T11:43:07.738Z,51.37
2016-05-30T11:44:07.741Z,51.18
2016-05-30T11:45:07.742Z,50.48
2016-05-30T11:46:07.766Z,51.93
2016-05-30T11:47:07.789Z,51.42
2016-05-30T11:48:07.781Z,51.35
2016-05-30T11:49:07.787Z,50.4
2016-05-30T11:50:07.786Z,49.39
2016-05-30T11:51:07.796Z,47.84
2016-05-30T11:52:07.931Z,46.7
2016-05-30T11:53:07.784Z,46.24
2016-05-30T11:54:07.794Z,45.47
2016-05-30T11:55:07.785Z,44.34
2016-05-30T11:56:07.790Z,44.92
2016-05-30T11:57:07.780Z,47.02
2016-05-30T11:58:07.629Z,45.47
2016-05-30T11:59:07.775Z,44.92
2016-05-30T12:00:07.779Z,44.27
2016-05-30T12:01:07.783Z,45.07
2016-05-30T12:02:07.756Z,43.32
2016-05-30T12:03:07.760Z,41.69
2016-05-30T12:04:07.763Z,40.81
2016-05-30T12:05:07.752Z,41.03
2016-05-30T12:06:07.755Z,40.25
2016-05-30T12:07:08.039Z,39.7
2016-05-30T12:08:07.745Z,40.88
2016-05-30T12:09:07.748Z,41.63
2016-05-30T12:10:07.735Z,40.27
2016-05-30T12:11:07.582Z,40.03
2016-05-30T12:12:07.725Z,38.79
2016-05-30T12:13:07.728Z,34.8
2016-05-30T12:14:07.714Z,35.41
2016-05-30T12:15:07.733Z,35.27
2016-05-30T12:16:07.720Z,35.14
2016-05-30T12:17:07.707Z,35.53
2016-05-30T12:18:07.707Z,35.35
2016-05-30T12:19:07.695Z,35.06
2016-05-30T12:20:07.556Z,33.81
2016-05-30T12:21:07.700Z,35
2016-05-30T12:22:08.205Z,36.5
2016-05-30T12:23:07.689Z,36.97
2016-05-30T12:24:07.677Z,35.53
2016-05-30T12:25:07.664Z,34.97
2016-05-30T12:26:07.682Z,35.94
2016-05-30T12:27:07.685Z,35.22
2016-05-30T12:28:07.672Z,36
2016-05-30T12:29:07.674Z,36.27
2016-05-30T12:30:07.677Z,37.26
2016-05-30T12:31:07.664Z,37.92
2016-05-30T12:32:07.667Z,38.39
2016-05-30T12:33:07.997Z,38.58
2016-05-30T12:34:07.641Z,37.32
2016-05-30T12:35:07.627Z,36.95
2016-05-30T12:36:07.630Z,36.5
2016-05-30T12:37:07.633Z,36.22
2016-05-30T12:38:07.621Z,34.67
2016-05-30T12:39:07.607Z,36.24
2016-05-30T12:40:07.626Z,37.51
2016-05-30T12:41:07.598Z,37.32
2016-05-30T12:42:07.600Z,38.65
2016-05-30T12:43:07.618Z,37.68
2016-05-30T12:44:07.606Z,38.6
2016-05-30T12:45:07.577Z,38.98
2016-05-30T12:46:07.579Z,38.57
2016-05-30T12:47:07.567Z,38.64
2016-05-30T12:48:07.569Z,39.12
2016-05-30T12:49:07.588Z,39.9
2016-05-30T12:50:07.559Z,38.04
2016-05-30T12:51:07.546Z,35.94
2016-05-30T12:52:07.392Z,34.9
2016-05-30T12:53:07.551Z,35.96
2016-05-30T12:54:07.539Z,36.13
2016-05-30T12:55:07.525Z,34.97
2016-05-30T12:56:15.031Z,37.02